sensor_id;sensor_type;location;lat;lon;timestamp;pressure;altitude;pressure_sealevel;temperature;humidity
23589;BME280;11972;48.078;11.876;2023-02-15T00:03:43;96722.19;;;-0.86;100.00
23589;BME280;11972;48.078;11.876;2023-02-15T00:07:43;96720.59;;;-0.89;100.00
23589;BME280;11972;48.078;11.876;2023-02-15T00:11:44;96720.50;;;-0.87;100.00
23589;BME280;11972;48.078;11.876;2023-02-15T00:15:49;96703.94;;;-0.85;100.00
23589;BME280;11972;48.078;11.876;2023-02-15T00:19:50;96700.34;;;-0.82;100.00
23589;BME280;11972;48.078;11.876;2023-02-15T00:23:51;96705.59;;;-0.84;100.00
23589;BME280;11972;48.078;11.876;2023-02-15T00:27:51;96707.72;;;-0.90;100.00
23589;BME280;11972;48.078;11.876;2023-02-15T00:31:52;96708.78;;;-0.94;100.00
23589;BME280;11972;48.078;11.876;2023-02-15T00:35:56;96706.34;;;-0.97;100.00
23589;BME280;11972;48.078;11.876;2023-02-15T00:39:57;96712.63;;;-1.02;100.00
23589;BME280;11972;48.078;11.876;2023-02-15T00:43:57;96701.56;;;-1.05;100.00
23589;BME280;11972;48.078;11.876;2023-02-15T00:47:57;96696.50;;;-1.07;100.00
23589;BME280;11972;48.078;11.876;2023-02-15T00:51:58;96693.91;;;-1.07;100.00
23589;BME280;11972;48.078;11.876;2023-02-15T00:55:58;96684.34;;;-1.06;100.00
23589;BME280;11972;48.078;11.876;2023-02-15T00:59:59;96691.88;;;-1.02;100.00
23589;BME280;11972;48.078;11.876;2023-02-15T01:03:59;96686.69;;;-1.02;100.00
23589;BME280;11972;48.078;11.876;2023-02-15T01:07:59;96684.09;;;-1.02;100.00
23589;BME280;11972;48.078;11.876;2023-02-15T01:12:00;96677.16;;;-1.01;100.00
23589;BME280;11972;48.078;11.876;2023-02-15T01:16:00;96675.66;;;-1.05;100.00
23589;BME280;11972;48.078;11.876;2023-02-15T01:20:01;96660.09;;;-1.05;100.00
23589;BME280;11972;48.078;11.876;2023-02-15T01:24:01;96659.25;;;-1.06;100.00
23589;BME280;11972;48.078;11.876;2023-02-15T01:28:02;96657.59;;;-1.07;100.00
23589;BME280;11972;48.078;11.876;2023-02-15T01:32:03;96654.31;;;-1.10;100.00
23589;BME280;11972;48.078;11.876;2023-02-15T01:36:04;96656.09;;;-1.11;100.00
23589;BME280;11972;48.078;11.876;2023-02-15T01:40:07;96656.97;;;-1.12;100.00
23589;BME280;11972;48.078;11.876;2023-02-15T01:48:54;96651.31;;;-1.18;100.00
23589;BME280;11972;48.078;11.876;2023-02-15T01:53:06;96645.28;;;-1.19;100.00
23589;BME280;11972;48.078;11.876;2023-02-15T01:57:15;96633.06;;;-1.17;100.00
23589;BME280;11972;48.078;11.876;2023-02-15T02:01:17;96641.59;;;-1.15;100.00
23589;BME280;11972;48.078;11.876;2023-02-15T02:05:18;96630.16;;;-1.11;100.00
23589;BME280;11972;48.078;11.876;2023-02-15T02:09:19;96631.81;;;-1.10;100.00
23589;BME280;11972;48.078;11.876;2023-02-15T02:13:19;96626.63;;;-1.10;100.00
23589;BME280;11972;48.078;11.876;2023-02-15T02:17:33;96621.44;;;-1.10;100.00
23589;BME280;11972;48.078;11.876;2023-02-15T02:34:38;96600.19;;;-1.01;100.00
23589;BME280;11972;48.078;11.876;2023-02-15T02:43:04;96602.03;;;-1.03;100.00
23589;BME280;11972;48.078;11.876;2023-02-15T02:51:09;96595.16;;;-1.04;100.00
23589;BME280;11972;48.078;11.876;2023-02-15T02:59:29;96600.69;;;-0.94;100.00
23589;BME280;11972;48.078;11.876;2023-02-15T03:03:40;96589.28;;;-0.91;100.00
23589;BME280;11972;48.078;11.876;2023-02-15T03:07:41;96591.22;;;-0.95;100.00
23589;BME280;11972;48.078;11.876;2023-02-15T03:11:44;96584.28;;;-0.94;100.00
23589;BME280;11972;48.078;11.876;2023-02-15T03:15:45;96576.69;;;-0.97;100.00
23589;BME280;11972;48.078;11.876;2023-02-15T03:20:16;96575.00;;;-0.98;100.00
23589;BME280;11972;48.078;11.876;2023-02-15T03:24:21;96581.28;;;-1.03;100.00
23589;BME280;11972;48.078;11.876;2023-02-15T03:28:53;96586.47;;;-1.03;100.00
23589;BME280;11972;48.078;11.876;2023-02-15T03:32:56;96594.91;;;-0.99;100.00
23589;BME280;11972;48.078;11.876;2023-02-15T03:37:03;96600.75;;;-0.95;100.00
23589;BME280;11972;48.078;11.876;2023-02-15T03:41:06;96598.00;;;-0.92;100.00
23589;BME280;11972;48.078;11.876;2023-02-15T03:45:14;96592.66;;;-0.89;100.00
23589;BME280;11972;48.078;11.876;2023-02-15T03:49:24;96594.97;;;-0.85;100.00
23589;BME280;11972;48.078;11.876;2023-02-15T03:53:25;96592.47;;;-0.86;100.00
23589;BME280;11972;48.078;11.876;2023-02-15T03:57:27;96598.00;;;-0.92;100.00
23589;BME280;11972;48.078;11.876;2023-02-15T04:02:20;96599.50;;;-0.88;100.00
23589;BME280;11972;48.078;11.876;2023-02-15T04:06:23;96603.34;;;-0.95;100.00
23589;BME280;11972;48.078;11.876;2023-02-15T04:10:23;96612.00;;;-1.11;100.00
23589;BME280;11972;48.078;11.876;2023-02-15T04:14:42;96608.22;;;-1.21;100.00
23589;BME280;11972;48.078;11.876;2023-02-15T04:19:01;96607.06;;;-1.31;100.00
23589;BME280;11972;48.078;11.876;2023-02-15T04:23:20;96604.22;;;-1.27;100.00
23589;BME280;11972;48.078;11.876;2023-02-15T04:27:41;96600.44;;;-1.21;100.00
23589;BME280;11972;48.078;11.876;2023-02-15T04:31:42;96591.41;;;-1.14;100.00
23589;BME280;11972;48.078;11.876;2023-02-15T04:35:43;96597.19;;;-1.09;100.00
23589;BME280;11972;48.078;11.876;2023-02-15T04:39:45;96598.69;;;-1.05;100.00
23589;BME280;11972;48.078;11.876;2023-02-15T04:43:45;96604.69;;;-1.04;100.00
23589;BME280;11972;48.078;11.876;2023-02-15T04:47:45;96607.38;;;-1.21;100.00
23589;BME280;11972;48.078;11.876;2023-02-15T04:51:46;96607.31;;;-1.36;100.00
23589;BME280;11972;48.078;11.876;2023-02-15T04:55:46;96604.50;;;-1.48;100.00
23589;BME280;11972;48.078;11.876;2023-02-15T04:59:46;96608.78;;;-1.63;100.00
23589;BME280;11972;48.078;11.876;2023-02-15T05:03:47;96610.41;;;-1.78;100.00
23589;BME280;11972;48.078;11.876;2023-02-15T05:07:47;96615.91;;;-1.84;100.00
23589;BME280;11972;48.078;11.876;2023-02-15T05:11:47;96610.00;;;-1.70;100.00
23589;BME280;11972;48.078;11.876;2023-02-15T05:15:48;96601.84;;;-1.63;100.00
23589;BME280;11972;48.078;11.876;2023-02-15T05:19:49;96604.34;;;-1.61;100.00
23589;BME280;11972;48.078;11.876;2023-02-15T05:23:49;96605.94;;;-1.59;100.00
23589;BME280;11972;48.078;11.876;2023-02-15T05:27:50;96606.88;;;-1.60;100.00
23589;BME280;11972;48.078;11.876;2023-02-15T05:32:09;96615.31;;;-1.56;100.00
23589;BME280;11972;48.078;11.876;2023-02-15T05:36:10;96617.22;;;-1.60;100.00
23589;BME280;11972;48.078;11.876;2023-02-15T05:40:11;96611.34;;;-1.79;100.00
23589;BME280;11972;48.078;11.876;2023-02-15T05:44:11;96617.34;;;-1.79;100.00
23589;BME280;11972;48.078;11.876;2023-02-15T05:48:11;96614.34;;;-1.71;100.00
23589;BME280;11972;48.078;11.876;2023-02-15T05:52:12;96614.94;;;-1.66;100.00
23589;BME280;11972;48.078;11.876;2023-02-15T05:56:12;96619.03;;;-1.62;100.00
23589;BME280;11972;48.078;11.876;2023-02-15T06:00:13;96622.47;;;-1.61;100.00
23589;BME280;11972;48.078;11.876;2023-02-15T06:04:14;96618.38;;;-1.65;100.00
23589;BME280;11972;48.078;11.876;2023-02-15T06:08:14;96618.38;;;-1.65;100.00
23589;BME280;11972;48.078;11.876;2023-02-15T06:12:15;96625.06;;;-1.61;100.00
23589;BME280;11972;48.078;11.876;2023-02-15T06:16:15;96622.91;;;-1.53;100.00
23589;BME280;11972;48.078;11.876;2023-02-15T06:20:16;96633.03;;;-1.48;100.00
23589;BME280;11972;48.078;11.876;2023-02-15T06:24:16;96638.63;;;-1.40;100.00
23589;BME280;11972;48.078;11.876;2023-02-15T06:28:16;96644.59;;;-1.38;100.00
23589;BME280;11972;48.078;11.876;2023-02-15T06:32:17;96635.88;;;-1.37;100.00
23589;BME280;11972;48.078;11.876;2023-02-15T06:36:17;96638.63;;;-1.40;100.00
23589;BME280;11972;48.078;11.876;2023-02-15T06:40:18;96637.13;;;-1.44;100.00
23589;BME280;11972;48.078;11.876;2023-02-15T06:44:18;96628.75;;;-1.50;100.00
23589;BME280;11972;48.078;11.876;2023-02-15T06:48:18;96638.38;;;-1.52;100.00
23589;BME280;11972;48.078;11.876;2023-02-15T06:52:19;96633.94;;;-1.50;100.00
23589;BME280;11972;48.078;11.876;2023-02-15T06:56:19;96628.59;;;-1.46;100.00
23589;BME280;11972;48.078;11.876;2023-02-15T07:00:19;96634.22;;;-1.38;100.00
23589;BME280;11972;48.078;11.876;2023-02-15T07:04:22;96640.75;;;-1.31;100.00
23589;BME280;11972;48.078;11.876;2023-02-15T07:08:23;96637.50;;;-1.19;100.00
23589;BME280;11972;48.078;11.876;2023-02-15T07:12:23;96639.50;;;-1.08;100.00
23589;BME280;11972;48.078;11.876;2023-02-15T07:16:42;96642.75;;;-1.05;100.00
23589;BME280;11972;48.078;11.876;2023-02-15T07:20:42;96647.38;;;-0.94;100.00
23589;BME280;11972;48.078;11.876;2023-02-15T07:24:43;96658.22;;;-0.87;100.00
23589;BME280;11972;48.078;11.876;2023-02-15T07:28:43;96653.28;;;-0.76;100.00
23589;BME280;11972;48.078;11.876;2023-02-15T07:32:44;96655.03;;;-0.61;100.00
23589;BME280;11972;48.078;11.876;2023-02-15T07:37:04;96650.81;;;-0.47;100.00
23589;BME280;11972;48.078;11.876;2023-02-15T07:41:13;96650.47;;;-0.41;100.00
23589;BME280;11972;48.078;11.876;2023-02-15T07:45:13;96650.03;;;-0.34;100.00
23589;BME280;11972;48.078;11.876;2023-02-15T07:49:14;96644.06;;;-0.20;100.00
23589;BME280;11972;48.078;11.876;2023-02-15T07:53:14;96640.38;;;-0.16;100.00
23589;BME280;11972;48.078;11.876;2023-02-15T07:57:15;96630.91;;;-0.03;100.00
23589;BME280;11972;48.078;11.876;2023-02-15T08:01:15;96634.63;;;-0.07;100.00
23589;BME280;11972;48.078;11.876;2023-02-15T08:05:15;96623.69;;;0.03;100.00
23589;BME280;11972;48.078;11.876;2023-02-15T08:09:18;96620.75;;;0.09;100.00
23589;BME280;11972;48.078;11.876;2023-02-15T08:13:18;96623.63;;;0.18;100.00
23589;BME280;11972;48.078;11.876;2023-02-15T08:17:18;96612.03;;;0.38;100.00
23589;BME280;11972;48.078;11.876;2023-02-15T08:21:19;96605.31;;;0.48;100.00
23589;BME280;11972;48.078;11.876;2023-02-15T08:25:20;96615.63;;;0.64;100.00
23589;BME280;11972;48.078;11.876;2023-02-15T08:29:23;96610.78;;;0.87;100.00
23589;BME280;11972;48.078;11.876;2023-02-15T08:33:24;96608.94;;;1.02;100.00
23589;BME280;11972;48.078;11.876;2023-02-15T08:37:24;96605.84;;;1.23;100.00
23589;BME280;11972;48.078;11.876;2023-02-15T08:41:34;96603.06;;;1.39;100.00
23589;BME280;11972;48.078;11.876;2023-02-15T08:45:35;96601.22;;;1.54;100.00
23589;BME280;11972;48.078;11.876;2023-02-15T08:49:35;96595.38;;;1.51;100.00
23589;BME280;11972;48.078;11.876;2023-02-15T08:53:37;96598.53;;;1.56;100.00
23589;BME280;11972;48.078;11.876;2023-02-15T08:57:38;96607.50;;;1.64;100.00
23589;BME280;11972;48.078;11.876;2023-02-15T09:01:38;96603.22;;;1.63;100.00
23589;BME280;11972;48.078;11.876;2023-02-15T09:05:39;96603.06;;;1.79;100.00
23589;BME280;11972;48.078;11.876;2023-02-15T09:09:39;96606.31;;;1.95;100.00
23589;BME280;11972;48.078;11.876;2023-02-15T09:13:40;96607.97;;;1.96;100.00
23589;BME280;11972;48.078;11.876;2023-02-15T09:17:40;96609.03;;;2.07;100.00
23589;BME280;11972;48.078;11.876;2023-02-15T09:21:41;96604.25;;;2.39;100.00
23589;BME280;11972;48.078;11.876;2023-02-15T09:25:41;96597.13;;;2.54;100.00
23589;BME280;11972;48.078;11.876;2023-02-15T09:29:42;96597.91;;;2.67;100.00
23589;BME280;11972;48.078;11.876;2023-02-15T09:33:44;96606.88;;;2.88;100.00
23589;BME280;11972;48.078;11.876;2023-02-15T09:37:45;96607.34;;;3.06;100.00
23589;BME280;11972;48.078;11.876;2023-02-15T09:54:33;96596.78;;;3.56;100.00
23589;BME280;11972;48.078;11.876;2023-02-15T10:03:33;96612.88;;;3.49;100.00
23589;BME280;11972;48.078;11.876;2023-02-15T10:12:32;96605.97;;;3.13;100.00
23589;BME280;11972;48.078;11.876;2023-02-15T10:30:08;96582.44;;;2.89;100.00
23589;BME280;11972;48.078;11.876;2023-02-15T10:39:17;96577.28;;;3.24;100.00
23589;BME280;11972;48.078;11.876;2023-02-15T10:43:27;96566.13;;;3.46;100.00
23589;BME280;11972;48.078;11.876;2023-02-15T11:00:40;96551.91;;;4.42;100.00
23589;BME280;11972;48.078;11.876;2023-02-15T11:04:48;96538.22;;;4.61;100.00
23589;BME280;11972;48.078;11.876;2023-02-15T11:08:56;96530.81;;;4.77;100.00
23589;BME280;11972;48.078;11.876;2023-02-15T11:13:05;96536.75;;;4.90;100.00
23589;BME280;11972;48.078;11.876;2023-02-15T11:17:12;96537.66;;;5.01;100.00
23589;BME280;11972;48.078;11.876;2023-02-15T11:21:19;96536.22;;;5.08;100.00
23589;BME280;11972;48.078;11.876;2023-02-15T11:25:25;96540.06;;;5.04;100.00
23589;BME280;11972;48.078;11.876;2023-02-15T11:29:36;96526.66;;;5.18;100.00
23589;BME280;11972;48.078;11.876;2023-02-15T11:33:40;96520.69;;;5.27;100.00
23589;BME280;11972;48.078;11.876;2023-02-15T11:37:46;96512.72;;;5.50;100.00
23589;BME280;11972;48.078;11.876;2023-02-15T11:41:52;96504.47;;;5.75;100.00
23589;BME280;11972;48.078;11.876;2023-02-15T11:45:54;96499.63;;;5.91;100.00
23589;BME280;11972;48.078;11.876;2023-02-15T11:49:54;96494.19;;;6.04;100.00
23589;BME280;11972;48.078;11.876;2023-02-15T11:53:55;96486.22;;;6.06;100.00
23589;BME280;11972;48.078;11.876;2023-02-15T11:58:10;96470.00;;;6.31;100.00
23589;BME280;11972;48.078;11.876;2023-02-15T12:02:19;96472.88;;;6.59;100.00
23589;BME280;11972;48.078;11.876;2023-02-15T12:06:29;96471.50;;;6.74;100.00
23589;BME280;11972;48.078;11.876;2023-02-15T12:10:39;96453.72;;;6.87;100.00
23589;BME280;11972;48.078;11.876;2023-02-15T12:14:51;96450.97;;;7.08;100.00
23589;BME280;11972;48.078;11.876;2023-02-15T12:18:53;96437.38;;;7.32;100.00
23589;BME280;11972;48.078;11.876;2023-02-15T12:23:00;96441.53;;;7.44;100.00
23589;BME280;11972;48.078;11.876;2023-02-15T12:27:03;96441.38;;;7.56;100.00
23589;BME280;11972;48.078;11.876;2023-02-15T12:31:18;96432.78;;;7.63;100.00
23589;BME280;11972;48.078;11.876;2023-02-15T12:35:31;96440.81;;;7.71;100.00
23589;BME280;11972;48.078;11.876;2023-02-15T12:39:32;96427.91;;;7.78;100.00
23589;BME280;11972;48.078;11.876;2023-02-15T12:43:37;96431.06;;;7.91;100.00
23589;BME280;11972;48.078;11.876;2023-02-15T12:47:38;96420.66;;;7.90;100.00
23589;BME280;11972;48.078;11.876;2023-02-15T12:52:04;96420.09;;;7.96;100.00
23589;BME280;11972;48.078;11.876;2023-02-15T12:56:05;96406.63;;;8.09;100.00
23589;BME280;11972;48.078;11.876;2023-02-15T13:00:25;96394.81;;;8.13;100.00
23589;BME280;11972;48.078;11.876;2023-02-15T13:04:27;96397.56;;;8.21;100.00
23589;BME280;11972;48.078;11.876;2023-02-15T13:08:31;96394.19;;;8.29;100.00
23589;BME280;11972;48.078;11.876;2023-02-15T13:12:34;96385.69;;;8.35;100.00
23589;BME280;11972;48.078;11.876;2023-02-15T13:16:37;96373.81;;;8.40;100.00
23589;BME280;11972;48.078;11.876;2023-02-15T13:20:40;96367.84;;;8.38;100.00
23589;BME280;11972;48.078;11.876;2023-02-15T13:24:48;96365.22;;;8.38;100.00
23589;BME280;11972;48.078;11.876;2023-02-15T13:28:55;96359.13;;;8.38;100.00
23589;BME280;11972;48.078;11.876;2023-02-15T13:33:03;96362.66;;;8.47;100.00
23589;BME280;11972;48.078;11.876;2023-02-15T13:41:33;96362.66;;;8.47;100.00
23589;BME280;11972;48.078;11.876;2023-02-15T13:55:07;96358.88;;;8.31;100.00
23589;BME280;11972;48.078;11.876;2023-02-15T14:03:47;96358.78;;;8.23;100.00
23589;BME280;11972;48.078;11.876;2023-02-15T14:12:16;96350.09;;;8.40;100.00
23589;BME280;11972;48.078;11.876;2023-02-15T14:16:34;96347.25;;;8.52;100.00
23589;BME280;11972;48.078;11.876;2023-02-15T14:20:54;96342.81;;;8.70;100.00
23589;BME280;11972;48.078;11.876;2023-02-15T14:33:08;96341.25;;;9.21;100.00
23589;BME280;11972;48.078;11.876;2023-02-15T14:37:22;96343.53;;;9.16;100.00
23589;BME280;11972;48.078;11.876;2023-02-15T14:41:43;96340.97;;;9.24;100.00
23589;BME280;11972;48.078;11.876;2023-02-15T14:45:56;96335.47;;;9.17;100.00
23589;BME280;11972;48.078;11.876;2023-02-15T14:49:59;96331.38;;;8.97;100.00
23589;BME280;11972;48.078;11.876;2023-02-15T14:58:22;96327.06;;;8.42;100.00
23589;BME280;11972;48.078;11.876;2023-02-15T15:06:41;96326.22;;;7.96;100.00
23589;BME280;11972;48.078;11.876;2023-02-15T15:10:46;96325.84;;;7.91;100.00
23589;BME280;11972;48.078;11.876;2023-02-15T15:14:48;96323.19;;;7.91;100.00
23589;BME280;11972;48.078;11.876;2023-02-15T15:18:49;96324.75;;;7.84;100.00
23589;BME280;11972;48.078;11.876;2023-02-15T15:22:49;96326.72;;;7.82;100.00
23589;BME280;11972;48.078;11.876;2023-02-15T15:31:42;96332.81;;;7.83;100.00
23589;BME280;11972;48.078;11.876;2023-02-15T15:40:23;96343.66;;;7.70;100.00
23589;BME280;11972;48.078;11.876;2023-02-15T15:48:32;96342.06;;;7.50;100.00
23589;BME280;11972;48.078;11.876;2023-02-15T15:52:35;96347.31;;;7.40;100.00
23589;BME280;11972;48.078;11.876;2023-02-15T15:56:39;96352.88;;;7.27;100.00
23589;BME280;11972;48.078;11.876;2023-02-15T16:00:47;96354.47;;;7.01;100.00
23589;BME280;11972;48.078;11.876;2023-02-15T16:04:49;96362.19;;;6.83;100.00
23589;BME280;11972;48.078;11.876;2023-02-15T16:08:49;96372.81;;;6.62;100.00
23589;BME280;11972;48.078;11.876;2023-02-15T16:12:51;96376.69;;;6.38;100.00
23589;BME280;11972;48.078;11.876;2023-02-15T16:16:55;96385.56;;;6.07;100.00
23589;BME280;11972;48.078;11.876;2023-02-15T16:20:58;96378.66;;;5.75;100.00
23589;BME280;11972;48.078;11.876;2023-02-15T16:29:32;96378.53;;;5.04;100.00
23589;BME280;11972;48.078;11.876;2023-02-15T16:33:37;96388.78;;;4.75;100.00
23589;BME280;11972;48.078;11.876;2023-02-15T16:37:38;96378.06;;;4.46;100.00
23589;BME280;11972;48.078;11.876;2023-02-15T16:41:39;96380.63;;;4.14;100.00
23589;BME280;11972;48.078;11.876;2023-02-15T16:45:39;96379.00;;;3.79;100.00
23589;BME280;11972;48.078;11.876;2023-02-15T16:49:44;96394.16;;;3.40;100.00
23589;BME280;11972;48.078;11.876;2023-02-15T16:53:46;96395.31;;;3.14;100.00
23589;BME280;11972;48.078;11.876;2023-02-15T16:57:49;96411.16;;;2.99;100.00
23589;BME280;11972;48.078;11.876;2023-02-15T17:01:50;96421.31;;;2.80;100.00
23589;BME280;11972;48.078;11.876;2023-02-15T17:05:57;96422.84;;;2.59;100.00
23589;BME280;11972;48.078;11.876;2023-02-15T17:09:57;96432.53;;;2.45;100.00
23589;BME280;11972;48.078;11.876;2023-02-15T17:22:17;96452.06;;;1.90;100.00
23589;BME280;11972;48.078;11.876;2023-02-15T17:26:30;96450.72;;;1.72;100.00
23589;BME280;11972;48.078;11.876;2023-02-15T17:30:34;96445.81;;;1.55;100.00
23589;BME280;11972;48.078;11.876;2023-02-15T17:39:12;96449.94;;;1.19;100.00
23589;BME280;11972;48.078;11.876;2023-02-15T17:43:18;96456.78;;;0.94;100.00
23589;BME280;11972;48.078;11.876;2023-02-15T17:47:23;96455.91;;;0.81;100.00
23589;BME280;11972;48.078;11.876;2023-02-15T17:51:26;96462.66;;;0.71;100.00
23589;BME280;11972;48.078;11.876;2023-02-15T17:55:27;96460.78;;;0.46;100.00
23589;BME280;11972;48.078;11.876;2023-02-15T17:59:41;96457.56;;;0.28;100.00
23589;BME280;11972;48.078;11.876;2023-02-15T18:04:00;96462.06;;;0.12;100.00
23589;BME280;11972;48.078;11.876;2023-02-15T18:08:25;96451.03;;;-0.06;100.00
23589;BME280;11972;48.078;11.876;2023-02-15T18:12:44;96453.00;;;-0.24;100.00
23589;BME280;11972;48.078;11.876;2023-02-15T18:16:45;96441.06;;;-0.41;100.00
23589;BME280;11972;48.078;11.876;2023-02-15T18:20:45;96453.47;;;-0.60;100.00
23589;BME280;11972;48.078;11.876;2023-02-15T18:24:47;96461.31;;;-0.76;100.00
23589;BME280;11972;48.078;11.876;2023-02-15T18:28:48;96463.88;;;-0.90;100.00
23589;BME280;11972;48.078;11.876;2023-02-15T18:32:51;96471.72;;;-1.06;100.00
23589;BME280;11972;48.078;11.876;2023-02-15T18:36:53;96473.56;;;-1.24;100.00
23589;BME280;11972;48.078;11.876;2023-02-15T18:40:54;96475.19;;;-1.37;100.00
23589;BME280;11972;48.078;11.876;2023-02-15T18:44:59;96481.16;;;-1.51;100.00
23589;BME280;11972;48.078;11.876;2023-02-15T18:49:00;96479.31;;;-1.65;100.00
23589;BME280;11972;48.078;11.876;2023-02-15T18:53:02;96475.22;;;-1.69;100.00
23589;BME280;11972;48.078;11.876;2023-02-15T18:57:03;96478.97;;;-1.75;100.00
23589;BME280;11972;48.078;11.876;2023-02-15T19:01:03;96476.13;;;-1.86;100.00
23589;BME280;11972;48.078;11.876;2023-02-15T19:05:04;96478.38;;;-1.95;100.00
23589;BME280;11972;48.078;11.876;2023-02-15T19:09:04;96486.31;;;-1.98;100.00
23589;BME280;11972;48.078;11.876;2023-02-15T19:13:09;96481.31;;;-2.02;100.00
23589;BME280;11972;48.078;11.876;2023-02-15T19:17:14;96494.50;;;-2.06;100.00
23589;BME280;11972;48.078;11.876;2023-02-15T19:21:15;96492.97;;;-2.10;100.00
23589;BME280;11972;48.078;11.876;2023-02-15T19:25:23;96491.72;;;-2.19;100.00
23589;BME280;11972;48.078;11.876;2023-02-15T19:29:28;96480.38;;;-2.16;100.00
23589;BME280;11972;48.078;11.876;2023-02-15T19:33:29;96476.63;;;-2.11;100.00
23589;BME280;11972;48.078;11.876;2023-02-15T19:37:36;96477.28;;;-2.07;100.00
23589;BME280;11972;48.078;11.876;2023-02-15T19:41:37;96480.91;;;-2.10;100.00
23589;BME280;11972;48.078;11.876;2023-02-15T19:45:37;96481.06;;;-2.13;100.00
23589;BME280;11972;48.078;11.876;2023-02-15T19:49:38;96484.13;;;-2.22;100.00
23589;BME280;11972;48.078;11.876;2023-02-15T19:53:39;96480.94;;;-2.27;100.00
23589;BME280;11972;48.078;11.876;2023-02-15T19:57:39;96476.75;;;-2.30;100.00
23589;BME280;11972;48.078;11.876;2023-02-15T20:01:40;96483.06;;;-2.35;100.00
23589;BME280;11972;48.078;11.876;2023-02-15T20:05:41;96486.84;;;-2.41;100.00
23589;BME280;11972;48.078;11.876;2023-02-15T20:09:41;96483.25;;;-2.38;100.00
23589;BME280;11972;48.078;11.876;2023-02-15T20:13:42;96480.97;;;-2.44;100.00
23589;BME280;11972;48.078;11.876;2023-02-15T20:17:42;96473.69;;;-2.54;100.00
23589;BME280;11972;48.078;11.876;2023-02-15T20:21:45;96471.41;;;-2.60;100.00
23589;BME280;11972;48.078;11.876;2023-02-15T20:25:46;96474.41;;;-2.67;100.00
23589;BME280;11972;48.078;11.876;2023-02-15T20:29:46;96466.03;;;-2.72;100.00
23589;BME280;11972;48.078;11.876;2023-02-15T20:33:48;96462.75;;;-2.76;100.00
23589;BME280;11972;48.078;11.876;2023-02-15T20:37:52;96458.59;;;-2.79;100.00
23589;BME280;11972;48.078;11.876;2023-02-15T20:41:53;96470.06;;;-2.84;100.00
23589;BME280;11972;48.078;11.876;2023-02-15T20:45:53;96469.19;;;-2.83;100.00
23589;BME280;11972;48.078;11.876;2023-02-15T20:49:54;96465.13;;;-2.89;100.00
23589;BME280;11972;48.078;11.876;2023-02-15T20:53:54;96461.84;;;-2.92;100.00
23589;BME280;11972;48.078;11.876;2023-02-15T20:57:56;96455.16;;;-2.96;100.00
23589;BME280;11972;48.078;11.876;2023-02-15T21:02:09;96460.81;;;-3.06;100.00
23589;BME280;11972;48.078;11.876;2023-02-15T21:06:14;96453.38;;;-3.12;100.00
23589;BME280;11972;48.078;11.876;2023-02-15T21:10:21;96456.00;;;-3.13;100.00
23589;BME280;11972;48.078;11.876;2023-02-15T21:14:23;96454.44;;;-3.16;100.00
23589;BME280;11972;48.078;11.876;2023-02-15T21:18:30;96455.50;;;-3.20;100.00
23589;BME280;11972;48.078;11.876;2023-02-15T21:22:30;96457.16;;;-3.19;100.00
23589;BME280;11972;48.078;11.876;2023-02-15T21:26:31;96466.59;;;-3.18;100.00
23589;BME280;11972;48.078;11.876;2023-02-15T21:30:31;96471.22;;;-3.25;100.00
23589;BME280;11972;48.078;11.876;2023-02-15T21:34:31;96461.19;;;-3.31;100.00
23589;BME280;11972;48.078;11.876;2023-02-15T21:38:32;96457.63;;;-3.28;100.00
23589;BME280;11972;48.078;11.876;2023-02-15T21:42:32;96463.72;;;-3.29;100.00
23589;BME280;11972;48.078;11.876;2023-02-15T21:46:51;96462.78;;;-3.28;100.00
23589;BME280;11972;48.078;11.876;2023-02-15T21:51:10;96457.03;;;-3.33;100.00
23589;BME280;11972;48.078;11.876;2023-02-15T21:55:29;96455.63;;;-3.40;100.00
23589;BME280;11972;48.078;11.876;2023-02-15T21:59:30;96461.03;;;-3.45;100.00
23589;BME280;11972;48.078;11.876;2023-02-15T22:03:32;96459.41;;;-3.47;100.00
23589;BME280;11972;48.078;11.876;2023-02-15T22:07:33;96465.56;;;-3.50;100.00
23589;BME280;11972;48.078;11.876;2023-02-15T22:11:33;96459.56;;;-3.51;100.00
23589;BME280;11972;48.078;11.876;2023-02-15T22:15:35;96457.88;;;-3.52;100.00
23589;BME280;11972;48.078;11.876;2023-02-15T22:19:36;96462.22;;;-3.52;100.00
23589;BME280;11972;48.078;11.876;2023-02-15T22:23:37;96454.47;;;-3.52;100.00
23589;BME280;11972;48.078;11.876;2023-02-15T22:27:38;96463.19;;;-3.55;100.00
23589;BME280;11972;48.078;11.876;2023-02-15T22:31:39;96465.16;;;-3.60;100.00
23589;BME280;11972;48.078;11.876;2023-02-15T22:35:40;96460.97;;;-3.62;100.00
23589;BME280;11972;48.078;11.876;2023-02-15T22:39:40;96460.38;;;-3.67;100.00
23589;BME280;11972;48.078;11.876;2023-02-15T22:43:42;96444.88;;;-3.67;100.00
23589;BME280;11972;48.078;11.876;2023-02-15T22:47:44;96442.28;;;-3.67;100.00
23589;BME280;11972;48.078;11.876;2023-02-15T22:51:48;96435.47;;;-3.68;100.00
23589;BME280;11972;48.078;11.876;2023-02-15T22:55:49;96441.59;;;-3.71;100.00
23589;BME280;11972;48.078;11.876;2023-02-15T22:59:50;96430.44;;;-3.71;100.00
23589;BME280;11972;48.078;11.876;2023-02-15T23:03:50;96432.25;;;-3.73;100.00
23589;BME280;11972;48.078;11.876;2023-02-15T23:07:51;96421.09;;;-3.74;100.00
23589;BME280;11972;48.078;11.876;2023-02-15T23:11:51;96424.56;;;-3.75;100.00
23589;BME280;11972;48.078;11.876;2023-02-15T23:15:55;96418.72;;;-3.79;100.00
23589;BME280;11972;48.078;11.876;2023-02-15T23:19:56;96424.75;;;-3.78;100.00
23589;BME280;11972;48.078;11.876;2023-02-15T23:24:10;96425.41;;;-3.75;100.00
23589;BME280;11972;48.078;11.876;2023-02-15T23:28:34;96413.06;;;-3.68;100.00
23589;BME280;11972;48.078;11.876;2023-02-15T23:32:35;96409.56;;;-3.67;100.00
23589;BME280;11972;48.078;11.876;2023-02-15T23:36:37;96402.59;;;-3.65;100.00
23589;BME280;11972;48.078;11.876;2023-02-15T23:40:38;96402.34;;;-3.60;100.00